Auriga — OMYB — position and weather

sailwx.info

Track history (hours):
 
Tides and Currents Weather Stations Pressure Air Temp Water Temp Dewpoint Dewpoint Depression Visibility Wind Speed Wind Dir Waves Ship Positions

Auriga

Last reported at 2018-Jul-19 06:09 UTC. Time now 2018-Jul-22 14:20 UTC.
Position N 44°30' E 022°12'.

Length 180 m; draft 2.3 m.

Type: Cargo ship. MMSI: 267204000.

Date/timePositionNaut miles runAvg speedWind from/ knotsBaromVisibWave heightAir tempDewpointWater temp
2018-Jul-19 06:09N 44°30' E 022°12'1 5.8
2018-Jul-19 06:01N 44°29' E 022°12'3 5.0
2018-Jul-19 05:30N 44°28' E 022°08'3 5.6
2018-Jul-19 05:00N 44°30' E 022°05'2 4.1
2018-Jul-19 04:30N 44°32' E 022°04'0 0.2
2018-Jul-19 04:00N 44°32' E 022°04'0 0.0
2018-Jul-19 03:31N 44°32' E 022°04'0 0.0
2018-Jul-19 03:01N 44°32' E 022°04'0 0.0
2018-Jul-19 02:30N 44°32' E 022°04'0 0.0
2018-Jul-19 02:00N 44°32' E 022°04'0 0.0
2018-Jul-19 01:31N 44°32' E 022°04'0 0.0
2018-Jul-19 01:00N 44°32' E 022°04'0 0.0
2018-Jul-19 00:30N 44°32' E 022°04'0 0.0
2018-Jul-19 00:01N 44°32' E 022°04'0 0.0
2018-Jul-18 23:30N 44°32' E 022°04'0 0.0
2018-Jul-18 23:00N 44°32' E 022°04'0 0.0
2018-Jul-18 22:30N 44°32' E 022°04'0 0.0
2018-Jul-18 22:00N 44°32' E 022°04'0 0.0
2018-Jul-18 21:30N 44°32' E 022°04'0 0.0
2018-Jul-18 21:00N 44°32' E 022°04'0 0.0
2018-Jul-18 20:31N 44°32' E 022°04'1 2.0
2018-Jul-18 20:00N 44°32' E 022°03'3 5.6
2018-Jul-18 19:31N 44°35' E 022°02'15 5.5
2018-Jul-18 16:51N 44°40' E 021°42'2 5.6
2018-Jul-18 16:31N 44°41' E 021°40'3 5.7
2018-Jul-18 16:01N 44°43' E 021°37'3 6.0
2018-Jul-18 15:31N 44°46' E 021°35'3 5.9
2018-Jul-18 15:00N 44°46' E 021°31'0 0.0
2018-Jul-18 14:29N 44°46' E 021°31'0 0.0
2018-Jul-18 09:16N 44°46' E 021°31'0 0.3
2018-Jul-18 09:00N 44°46' E 021°31'2 3.1
2018-Jul-18 08:28N 44°47' E 021°28'3 5.7
2018-Jul-18 08:00N 44°47' E 021°25'16 4.8
2018-Jul-18 04:44N 44°43' E 021°03'1 5.9
2018-Jul-18 04:30N 44°43' E 021°01'3 5.8
2018-Jul-18 04:00N 44°42' E 020°58'2 0.3
2018-Jul-17 21:56N 44°40' E 020°56'0 0.0
2018-Jul-17 21:31N 44°40' E 020°56'0 0.0
2018-Jul-17 21:01N 44°40' E 020°56'0 0.0
2018-Jul-17 20:31N 44°40' E 020°56'0 0.0
2018-Jul-17 20:01N 44°40' E 020°56'0 0.0
2018-Jul-17 19:31N 44°40' E 020°56'0 0.0
2018-Jul-17 19:01N 44°40' E 020°56'2 3.7
2018-Jul-17 18:30N 44°40' E 020°53'3 6.1
2018-Jul-17 18:00N 44°39' E 020°49'3 5.8
2018-Jul-17 17:31N 44°40' E 020°45'3 5.8
2018-Jul-17 17:01N 44°42' E 020°42'3 5.8
2018-Jul-17 16:31N 44°44' E 020°40'3 5.5
2018-Jul-17 16:00N 44°47' E 020°38'3 5.7
2018-Jul-17 15:30N 44°49' E 020°39'1 2.2
2018-Jul-17 14:56N 44°51' E 020°38'0 0.6
2018-Jul-17 14:31N 44°51' E 020°39'0 0.7
2018-Jul-17 14:00N 44°51' E 020°38'0 0.0
2018-Jul-17 13:30N 44°51' E 020°39'1 1.2
2018-Jul-17 13:01N 44°50' E 020°38'0 0.5
2018-Jul-17 12:30N 44°50' E 020°38'0 0.4
2018-Jul-17 12:01N 44°50' E 020°39'0 0.8
2018-Jul-17 11:31N 44°51' E 020°39'0 0.6
2018-Jul-17 11:01N 44°51' E 020°39'0 0.0
2018-Jul-17 10:31N 44°51' E 020°39'0 0.0
2018-Jul-17 10:01N 44°51' E 020°39'0 0.0
2018-Jul-17 09:30N 44°51' E 020°39'0 0.0
2018-Jul-17 09:00N 44°51' E 020°39'0 0.0
2018-Jul-16 21:47N 44°50' E 020°39'0 0.0
2018-Jul-16 21:31N 44°50' E 020°39'0 0.0
2018-Jul-16 21:01N 44°50' E 020°39'0 0.0
2018-Jul-16 20:30N 44°50' E 020°39'0 0.0
2018-Jul-16 20:01N 44°50' E 020°39'0 0.0
2018-Jul-16 19:30N 44°50' E 020°39'0 0.0
2018-Jul-16 19:01N 44°50' E 020°39'0 0.0
2018-Jul-16 18:31N 44°50' E 020°39'0 0.0
2018-Jul-16 18:00N 44°50' E 020°39'0 0.0
2018-Jul-16 17:31N 44°50' E 020°39'0 0.0
2018-Jul-16 17:01N 44°50' E 020°39'0 0.0
2018-Jul-16 16:31N 44°50' E 020°39'0 0.0
2018-Jul-16 16:00N 44°50' E 020°39'0 0.0
2018-Jul-16 15:30N 44°50' E 020°39'0 0.0
2018-Jul-16 15:01N 44°50' E 020°39'0 0.0
2018-Jul-16 14:30N 44°50' E 020°39'0 0.0
2018-Jul-16 14:00N 44°50' E 020°39'0 0.0
2018-Jul-16 13:31N 44°50' E 020°39'0 0.0
2018-Jul-16 13:00N 44°50' E 020°39'0 0.0
2018-Jul-16 12:31N 44°50' E 020°39'0 0.0
2018-Jul-16 12:01N 44°50' E 020°39'0 0.0
2018-Jul-16 11:31N 44°50' E 020°39'0 0.0
2018-Jul-16 10:29N 44°50' E 020°39'0 0.0
2018-Jul-16 10:01N 44°50' E 020°39'0 0.0
2018-Jul-16 09:30N 44°50' E 020°39'0 0.0
2018-Jul-16 07:15N 44°50' E 020°39'0 0.0
2018-Jul-16 05:45N 44°50' E 020°39'0 0.0
2018-Jul-15 19:19N 44°51' E 020°39'0 0.0
2018-Jul-15 19:01N 44°51' E 020°39'0 0.0
2018-Jul-15 18:31N 44°51' E 020°39'0 0.0
2018-Jul-15 18:00N 44°51' E 020°39'0 0.0
2018-Jul-15 17:31N 44°51' E 020°39'0 0.0
2018-Jul-15 17:01N 44°51' E 020°39'0 0.0
2018-Jul-15 16:31N 44°51' E 020°39'0 0.0
2018-Jul-15 16:01N 44°51' E 020°39'0 0.0
2018-Jul-15 15:31N 44°51' E 020°39'0 0.0
2018-Jul-15 15:00N 44°51' E 020°39'0 0.0
2018-Jul-15 14:30N 44°51' E 020°39'0 0.0
2018-Jul-15 14:01N 44°51' E 020°39'0 0.0
2018-Jul-15 13:31N 44°51' E 020°39'0 0.0
2018-Jul-15 13:00N 44°51' E 020°39'0 0.0
2018-Jul-15 12:30N 44°51' E 020°39'0 0.0
2018-Jul-15 12:01N 44°51' E 020°39'0 0.0
2018-Jul-15 11:31N 44°51' E 020°39'0 0.0
2018-Jul-15 11:01N 44°51' E 020°39'0 0.0
2018-Jul-15 10:31N 44°51' E 020°39'0 0.0
2018-Jul-15 10:01N 44°51' E 020°39'0 0.0
2018-Jul-15 09:30N 44°51' E 020°39'0 0.0
2018-Jul-15 08:28N 44°51' E 020°39'0 0.0
2018-Jul-15 08:00N 44°51' E 020°39'0 0.0
2018-Jul-15 07:30N 44°51' E 020°39'0 0.0
2018-Jul-15 07:00N 44°51' E 020°39'0 0.0
2018-Jul-15 06:30N 44°51' E 020°39'0 0.0
2018-Jul-14 20:10N 44°51' E 020°39'0 0.0
2018-Jul-14 20:00N 44°51' E 020°39'0 0.0
2018-Jul-14 19:30N 44°51' E 020°39'0 0.0
2018-Jul-14 19:01N 44°51' E 020°39'0 0.0
2018-Jul-14 18:30N 44°51' E 020°39'0 0.0
2018-Jul-14 18:01N 44°51' E 020°39'0 0.0
2018-Jul-14 17:30N 44°51' E 020°39'0 0.0
2018-Jul-14 17:00N 44°51' E 020°39'0 0.0
2018-Jul-14 16:31N 44°51' E 020°39'0 0.0
2018-Jul-14 16:01N 44°51' E 020°39'0 0.0
2018-Jul-14 15:31N 44°51' E 020°39'0 0.0
2018-Jul-14 15:01N 44°51' E 020°39'0 0.0
2018-Jul-14 14:31N 44°51' E 020°39'0 0.0
2018-Jul-14 13:30N 44°51' E 020°39'0 0.0
2018-Jul-14 13:00N 44°51' E 020°39'0 0.0
2018-Jul-14 12:31N 44°51' E 020°39'0 0.0
2018-Jul-14 12:01N 44°51' E 020°39'0 0.0
2018-Jul-14 11:31N 44°51' E 020°39'0 0.0
2018-Jul-14 11:01N 44°51' E 020°39'0 0.0
2018-Jul-14 10:31N 44°51' E 020°39'0 0.0
2018-Jul-14 10:00N 44°51' E 020°39'0 0.0
2018-Jul-14 09:31N 44°51' E 020°39'0 0.0
2018-Jul-14 09:01N 44°51' E 020°39'0 0.0
2018-Jul-14 08:31N 44°51' E 020°39'0 0.0
2018-Jul-14 08:01N 44°51' E 020°39'0 0.0
2018-Jul-14 07:31N 44°51' E 020°39'0 0.8
2018-Jul-14 07:01N 44°51' E 020°39'0 0.0
2018-Jul-14 06:31N 44°51' E 020°39'0 0.0
2018-Jul-14 06:01N 44°51' E 020°39'0 0.0
2018-Jul-14 05:31N 44°51' E 020°39'0 0.0
2018-Jul-14 05:01N 44°51' E 020°39'0 0.3
2018-Jul-14 04:31N 44°51' E 020°39'0 1.0
2018-Jul-14 04:01N 44°50' E 020°38'0 0.0
2018-Jul-14 03:31N 44°50' E 020°38'0 0.0
2018-Jul-14 03:01N 44°50' E 020°38'0 0.0
2018-Jul-14 02:30N 44°50' E 020°38'0 0.0
2018-Jul-14 02:00N 44°50' E 020°38'0 0.0
2018-Jul-14 01:30N 44°50' E 020°38'0 0.0
2018-Jul-14 01:00N 44°50' E 020°38'0 0.0
2018-Jul-14 00:30N 44°50' E 020°38'0 0.0
2018-Jul-14 00:00N 44°50' E 020°38'0 0.0
2018-Jul-13 23:31N 44°50' E 020°38'0 0.0
2018-Jul-13 23:00N 44°50' E 020°38'0 0.0
2018-Jul-13 22:30N 44°50' E 020°38'0 0.0
2018-Jul-13 22:00N 44°50' E 020°38'0 0.0
2018-Jul-13 21:31N 44°50' E 020°38'0 0.0
2018-Jul-13 21:01N 44°50' E 020°38'0 0.0
2018-Jul-13 20:31N 44°50' E 020°38'0 0.0
2018-Jul-13 20:00N 44°50' E 020°38'0 0.0
2018-Jul-13 19:31N 44°50' E 020°38'0 0.4
2018-Jul-13 19:01N 44°50' E 020°38'2 3.9
2018-Jul-13 18:31N 44°48' E 020°38'2 4.4
2018-Jul-13 18:00N 44°46' E 020°38'2 4.1
2018-Jul-13 17:30N 44°44' E 020°40'2 4.3
2018-Jul-13 17:00N 44°43' E 020°42'2 4.4
2018-Jul-13 16:30N 44°41' E 020°43'2 4.2
2018-Jul-13 16:00N 44°40' E 020°46'2 4.1
2018-Jul-13 15:30N 44°39' E 020°49'2 4.0
2018-Jul-13 15:00N 44°40' E 020°51'4 3.8
2018-Jul-13 13:59N 44°41' E 020°57'1 0.8
2018-Jul-13 13:15N 44°41' E 020°56'1 0.7
2018-Jul-13 12:08N 44°40' E 020°55'0 1.5
2018-Jul-13 11:56N 44°40' E 020°56'0 0.3
2018-Jul-13 11:30N 44°40' E 020°56'0 0.1
2018-Jul-13 10:54N 44°40' E 020°56'0 0.0
2018-Jul-13 10:30N 44°40' E 020°56'1 0.3
2018-Jul-13 08:45N 44°41' E 020°56'1 1.7
2018-Jul-13 08:27N 44°41' E 020°57'0 0.0
2018-Jul-13 08:00N 44°41' E 020°57'0 0.0
2018-Jul-12 23:52N 44°41' E 020°57'0 0.0
2018-Jul-12 23:30N 44°41' E 020°57'0 0.0
2018-Jul-12 23:00N 44°41' E 020°57'0 0.0
2018-Jul-12 22:30N 44°41' E 020°57'0 0.0
2018-Jul-12 22:00N 44°41' E 020°57'0 0.0
2018-Jul-12 21:30N 44°41' E 020°57'0 0.0
2018-Jul-12 21:00N 44°41' E 020°57'0 0.0
2018-Jul-12 20:30N 44°41' E 020°57'0 0.0
2018-Jul-12 20:00N 44°41' E 020°57'0 0.0
2018-Jul-12 19:30N 44°41' E 020°57'0 0.0
2018-Jul-12 19:00N 44°41' E 020°57'0 0.0
2018-Jul-12 18:30N 44°41' E 020°57'0 0.0
2018-Jul-12 18:00N 44°41' E 020°57'0 0.0
2018-Jul-12 17:30N 44°41' E 020°57'0 0.0
2018-Jul-12 17:00N 44°41' E 020°57'0 0.0
2018-Jul-12 16:30N 44°41' E 020°57'0 0.0
2018-Jul-12 16:00N 44°41' E 020°57'0 0.0
2018-Jul-12 15:30N 44°41' E 020°57'0 0.0
2018-Jul-12 15:00N 44°41' E 020°57'0 0.0
2018-Jul-12 14:30N 44°41' E 020°57'0 0.0
2018-Jul-12 14:00N 44°41' E 020°57'0 0.0
2018-Jul-12 13:30N 44°41' E 020°57'0 0.0
2018-Jul-12 13:00N 44°41' E 020°57'0 0.0
2018-Jul-12 12:30N 44°41' E 020°57'0 0.0
2018-Jul-12 11:37N 44°41' E 020°57'0 0.0
2018-Jul-12 11:30N 44°41' E 020°57'0 0.0
2018-Jul-12 11:00N 44°41' E 020°57'0 0.0
2018-Jul-12 10:30N 44°41' E 020°57'0 0.0
2018-Jul-12 00:09N 44°41' E 020°57'0 0.0
2018-Jul-12 00:00N 44°41' E 020°57'0 0.0
2018-Jul-11 23:30N 44°41' E 020°57'0 0.0
2018-Jul-11 23:01N 44°41' E 020°57'0 0.0
2018-Jul-11 22:30N 44°41' E 020°57'0 0.0
2018-Jul-11 22:01N 44°41' E 020°57'0 0.0
2018-Jul-11 21:31N 44°41' E 020°57'0 0.0
2018-Jul-11 21:00N 44°41' E 020°57'0 0.0
2018-Jul-11 20:30N 44°41' E 020°57'0 0.0
2018-Jul-11 20:00N 44°41' E 020°57'0 0.0
2018-Jul-11 19:31N 44°41' E 020°57'0 0.0
2018-Jul-11 19:00N 44°41' E 020°57'0 0.0
2018-Jul-11 18:31N 44°41' E 020°57'0 0.0
2018-Jul-11 18:00N 44°41' E 020°57'0 0.0
2018-Jul-11 17:31N 44°41' E 020°57'0 0.0
2018-Jul-11 17:01N 44°41' E 020°57'0 0.0
2018-Jul-11 16:30N 44°41' E 020°57'0 0.0
2018-Jul-11 16:00N 44°41' E 020°57'0 0.0
2018-Jul-11 15:31N 44°41' E 020°57'0 0.0
2018-Jul-11 15:01N 44°41' E 020°57'0 0.0
2018-Jul-11 14:30N 44°41' E 020°57'0 0.0
2018-Jul-11 14:00N 44°41' E 020°57'0 0.0
2018-Jul-11 13:30N 44°41' E 020°57'0 0.0
2018-Jul-11 13:00N 44°41' E 020°57'0 0.0
2018-Jul-11 12:30N 44°41' E 020°57'0 0.0
2018-Jul-11 12:00N 44°41' E 020°57'0 0.0
2018-Jul-11 11:30N 44°41' E 020°57'0 0.0
2018-Jul-11 11:00N 44°41' E 020°57'0 0.0
2018-Jul-11 10:31N 44°41' E 020°57'0 0.0
2018-Jul-11 10:00N 44°41' E 020°57'0 0.0
2018-Jul-10 20:18N 44°41' E 020°57'0 0.0
2018-Jul-10 20:00N 44°41' E 020°57'0 0.0
2018-Jul-10 19:30N 44°41' E 020°57'0 0.0
2018-Jul-10 19:00N 44°41' E 020°57'0 0.0
2018-Jul-10 18:30N 44°41' E 020°57'0 0.0
2018-Jul-10 18:00N 44°41' E 020°57'0 0.0
2018-Jul-10 17:30N 44°41' E 020°57'0 0.0
2018-Jul-10 17:01N 44°41' E 020°57'0 0.0
2018-Jul-10 16:30N 44°41' E 020°57'0 0.0
2018-Jul-10 16:00N 44°41' E 020°57'0 0.0
2018-Jul-10 15:31N 44°41' E 020°57'0 0.0
2018-Jul-10 15:00N 44°41' E 020°57'0 0.0
2018-Jul-10 14:30N 44°41' E 020°57'0 0.0
2018-Jul-10 14:01N 44°41' E 020°57'0 0.0
2018-Jul-10 13:31N 44°41' E 020°57'0 0.3
2018-Jul-10 13:00N 44°41' E 020°57'0 0.0
2018-Jul-10 12:30N 44°41' E 020°57'0 0.0
2018-Jul-10 12:00N 44°41' E 020°57'0 0.0
2018-Jul-10 11:30N 44°41' E 020°57'0 0.0
2018-Jul-10 11:00N 44°41' E 020°57'0 0.0
2018-Jul-09 21:52N 44°41' E 020°57'0 0.0
2018-Jul-09 21:30N 44°41' E 020°57'0 0.0
2018-Jul-09 21:00N 44°41' E 020°57'0 0.0
2018-Jul-09 20:30N 44°41' E 020°57'0 0.0
2018-Jul-09 20:00N 44°41' E 020°57'0 0.0
2018-Jul-09 19:30N 44°41' E 020°57'0 0.0
2018-Jul-09 19:00N 44°41' E 020°57'0 0.0
2018-Jul-09 18:30N 44°41' E 020°57'0 0.0
2018-Jul-09 18:00N 44°41' E 020°57'0 0.0
2018-Jul-09 17:30N 44°41' E 020°57'0 0.0
2018-Jul-09 17:00N 44°41' E 020°57'0 0.0
2018-Jul-09 16:30N 44°41' E 020°57'0 0.0
2018-Jul-09 16:00N 44°41' E 020°57'0 0.0
2018-Jul-09 15:30N 44°41' E 020°57'0 0.0
2018-Jul-09 15:00N 44°41' E 020°57'0 0.0
2018-Jul-09 14:30N 44°41' E 020°57'0 0.0
2018-Jul-09 14:00N 44°41' E 020°57'0 0.0
2018-Jul-09 13:30N 44°41' E 020°57'0 0.0
2018-Jul-09 13:00N 44°41' E 020°57'0 0.0
2018-Jul-09 12:30N 44°41' E 020°57'0 0.0
2018-Jul-09 12:00N 44°41' E 020°57'0 0.0
2018-Jul-09 11:30N 44°41' E 020°57'0 0.0
2018-Jul-09 11:00N 44°41' E 020°57'0 0.0
2018-Jul-09 10:30N 44°41' E 020°57'  
Track history (hours):
 
Tides and Currents Weather Stations Pressure Air Temp Water Temp Dewpoint Dewpoint Depression Visibility Wind Speed Wind Dir Waves Ship Positions

Auriga

Last reported at 2018-Jul-19 06:09 UTC. Time now 2018-Jul-22 14:20 UTC.
Position N 44°30' E 022°12'.

Length 180 m; draft 2.3 m.

Type: Cargo ship. MMSI: 267204000.

Date/timePositionNaut miles runAvg speedWind from/ knotsBaromVisibWave heightAir tempDewpointWater temp
2018-Jul-19 06:09N 44°30' E 022°12'1 5.8
2018-Jul-19 06:01N 44°29' E 022°12'3 5.0
2018-Jul-19 05:30N 44°28' E 022°08'3 5.6
2018-Jul-19 05:00N 44°30' E 022°05'2 4.1
2018-Jul-19 04:30N 44°32' E 022°04'0 0.2
2018-Jul-19 04:00N 44°32' E 022°04'0 0.0
2018-Jul-19 03:31N 44°32' E 022°04'0 0.0
2018-Jul-19 03:01N 44°32' E 022°04'0 0.0
2018-Jul-19 02:30N 44°32' E 022°04'0 0.0
2018-Jul-19 02:00N 44°32' E 022°04'0 0.0
2018-Jul-19 01:31N 44°32' E 022°04'0 0.0
2018-Jul-19 01:00N 44°32' E 022°04'0 0.0
2018-Jul-19 00:30N 44°32' E 022°04'0 0.0
2018-Jul-19 00:01N 44°32' E 022°04'0 0.0
2018-Jul-18 23:30N 44°32' E 022°04'0 0.0
2018-Jul-18 23:00N 44°32' E 022°04'0 0.0
2018-Jul-18 22:30N 44°32' E 022°04'0 0.0
2018-Jul-18 22:00N 44°32' E 022°04'0 0.0
2018-Jul-18 21:30N 44°32' E 022°04'0 0.0
2018-Jul-18 21:00N 44°32' E 022°04'0 0.0
2018-Jul-18 20:31N 44°32' E 022°04'1 2.0
2018-Jul-18 20:00N 44°32' E 022°03'3 5.6
2018-Jul-18 19:31N 44°35' E 022°02'15 5.5
2018-Jul-18 16:51N 44°40' E 021°42'2 5.6
2018-Jul-18 16:31N 44°41' E 021°40'3 5.7
2018-Jul-18 16:01N 44°43' E 021°37'3 6.0
2018-Jul-18 15:31N 44°46' E 021°35'3 5.9
2018-Jul-18 15:00N 44°46' E 021°31'0 0.0
2018-Jul-18 14:29N 44°46' E 021°31'0 0.0
2018-Jul-18 09:16N 44°46' E 021°31'0 0.3
2018-Jul-18 09:00N 44°46' E 021°31'2 3.1
2018-Jul-18 08:28N 44°47' E 021°28'3 5.7
2018-Jul-18 08:00N 44°47' E 021°25'16 4.8
2018-Jul-18 04:44N 44°43' E 021°03'1 5.9
2018-Jul-18 04:30N 44°43' E 021°01'3 5.8
2018-Jul-18 04:00N 44°42' E 020°58'2 0.3
2018-Jul-17 21:56N 44°40' E 020°56'0 0.0
2018-Jul-17 21:31N 44°40' E 020°56'0 0.0
2018-Jul-17 21:01N 44°40' E 020°56'0 0.0
2018-Jul-17 20:31N 44°40' E 020°56'0 0.0
2018-Jul-17 20:01N 44°40' E 020°56'0 0.0
2018-Jul-17 19:31N 44°40' E 020°56'0 0.0
2018-Jul-17 19:01N 44°40' E 020°56'2 3.7
2018-Jul-17 18:30N 44°40' E 020°53'3 6.1
2018-Jul-17 18:00N 44°39' E 020°49'3 5.8
2018-Jul-17 17:31N 44°40' E 020°45'3 5.8
2018-Jul-17 17:01N 44°42' E 020°42'3 5.8
2018-Jul-17 16:31N 44°44' E 020°40'3 5.5
2018-Jul-17 16:00N 44°47' E 020°38'3 5.7
2018-Jul-17 15:30N 44°49' E 020°39'1 2.2
2018-Jul-17 14:56N 44°51' E 020°38'0 0.6
2018-Jul-17 14:31N 44°51' E 020°39'0 0.7
2018-Jul-17 14:00N 44°51' E 020°38'0 0.0
2018-Jul-17 13:30N 44°51' E 020°39'1 1.2
2018-Jul-17 13:01N 44°50' E 020°38'0 0.5
2018-Jul-17 12:30N 44°50' E 020°38'0 0.4
2018-Jul-17 12:01N 44°50' E 020°39'0 0.8
2018-Jul-17 11:31N 44°51' E 020°39'0 0.6
2018-Jul-17 11:01N 44°51' E 020°39'0 0.0
2018-Jul-17 10:31N 44°51' E 020°39'0 0.0
2018-Jul-17 10:01N 44°51' E 020°39'0 0.0
2018-Jul-17 09:30N 44°51' E 020°39'0 0.0
2018-Jul-17 09:00N 44°51' E 020°39'0 0.0
2018-Jul-16 21:47N 44°50' E 020°39'0 0.0
2018-Jul-16 21:31N 44°50' E 020°39'0 0.0
2018-Jul-16 21:01N 44°50' E 020°39'0 0.0
2018-Jul-16 20:30N 44°50' E 020°39'0 0.0
2018-Jul-16 20:01N 44°50' E 020°39'0 0.0
2018-Jul-16 19:30N 44°50' E 020°39'0 0.0
2018-Jul-16 19:01N 44°50' E 020°39'0 0.0
2018-Jul-16 18:31N 44°50' E 020°39'0 0.0
2018-Jul-16 18:00N 44°50' E 020°39'0 0.0
2018-Jul-16 17:31N 44°50' E 020°39'0 0.0
2018-Jul-16 17:01N 44°50' E 020°39'0 0.0
2018-Jul-16 16:31N 44°50' E 020°39'0 0.0
2018-Jul-16 16:00N 44°50' E 020°39'0 0.0
2018-Jul-16 15:30N 44°50' E 020°39'0 0.0
2018-Jul-16 15:01N 44°50' E 020°39'0 0.0
2018-Jul-16 14:30N 44°50' E 020°39'0 0.0
2018-Jul-16 14:00N 44°50' E 020°39'0 0.0
2018-Jul-16 13:31N 44°50' E 020°39'0 0.0
2018-Jul-16 13:00N 44°50' E 020°39'0 0.0
2018-Jul-16 12:31N 44°50' E 020°39'0 0.0
2018-Jul-16 12:01N 44°50' E 020°39'0 0.0
2018-Jul-16 11:31N 44°50' E 020°39'0 0.0
2018-Jul-16 10:29N 44°50' E 020°39'0 0.0
2018-Jul-16 10:01N 44°50' E 020°39'0 0.0
2018-Jul-16 09:30N 44°50' E 020°39'0 0.0
2018-Jul-16 07:15N 44°50' E 020°39'0 0.0
2018-Jul-16 05:45N 44°50' E 020°39'0 0.0
2018-Jul-15 19:19N 44°51' E 020°39'0 0.0
2018-Jul-15 19:01N 44°51' E 020°39'0 0.0
2018-Jul-15 18:31N 44°51' E 020°39'0 0.0
2018-Jul-15 18:00N 44°51' E 020°39'0 0.0
2018-Jul-15 17:31N 44°51' E 020°39'0 0.0
2018-Jul-15 17:01N 44°51' E 020°39'0 0.0
2018-Jul-15 16:31N 44°51' E 020°39'0 0.0
2018-Jul-15 16:01N 44°51' E 020°39'0 0.0
2018-Jul-15 15:31N 44°51' E 020°39'0 0.0
2018-Jul-15 15:00N 44°51' E 020°39'0 0.0
2018-Jul-15 14:30N 44°51' E 020°39'0 0.0
2018-Jul-15 14:01N 44°51' E 020°39'0 0.0
2018-Jul-15 13:31N 44°51' E 020°39'0 0.0
2018-Jul-15 13:00N 44°51' E 020°39'0 0.0
2018-Jul-15 12:30N 44°51' E 020°39'0 0.0
2018-Jul-15 12:01N 44°51' E 020°39'0 0.0
2018-Jul-15 11:31N 44°51' E 020°39'0 0.0
2018-Jul-15 11:01N 44°51' E 020°39'0 0.0
2018-Jul-15 10:31N 44°51' E 020°39'0 0.0
2018-Jul-15 10:01N 44°51' E 020°39'0 0.0
2018-Jul-15 09:30N 44°51' E 020°39'0 0.0
2018-Jul-15 08:28N 44°51' E 020°39'0 0.0
2018-Jul-15 08:00N 44°51' E 020°39'0 0.0
2018-Jul-15 07:30N 44°51' E 020°39'0 0.0
2018-Jul-15 07:00N 44°51' E 020°39'0 0.0
2018-Jul-15 06:30N 44°51' E 020°39'0 0.0
2018-Jul-14 20:10N 44°51' E 020°39'0 0.0
2018-Jul-14 20:00N 44°51' E 020°39'0 0.0
2018-Jul-14 19:30N 44°51' E 020°39'0 0.0
2018-Jul-14 19:01N 44°51' E 020°39'0 0.0
2018-Jul-14 18:30N 44°51' E 020°39'0 0.0
2018-Jul-14 18:01N 44°51' E 020°39'0 0.0
2018-Jul-14 17:30N 44°51' E 020°39'0 0.0
2018-Jul-14 17:00N 44°51' E 020°39'0 0.0
2018-Jul-14 16:31N 44°51' E 020°39'0 0.0
2018-Jul-14 16:01N 44°51' E 020°39'0 0.0
2018-Jul-14 15:31N 44°51' E 020°39'0 0.0
2018-Jul-14 15:01N 44°51' E 020°39'0 0.0
2018-Jul-14 14:31N 44°51' E 020°39'0 0.0
2018-Jul-14 13:30N 44°51' E 020°39'0 0.0
2018-Jul-14 13:00N 44°51' E 020°39'0 0.0
2018-Jul-14 12:31N 44°51' E 020°39'0 0.0
2018-Jul-14 12:01N 44°51' E 020°39'0 0.0
2018-Jul-14 11:31N 44°51' E 020°39'0 0.0
2018-Jul-14 11:01N 44°51' E 020°39'0 0.0
2018-Jul-14 10:31N 44°51' E 020°39'0 0.0
2018-Jul-14 10:00N 44°51' E 020°39'0 0.0
2018-Jul-14 09:31N 44°51' E 020°39'0 0.0
2018-Jul-14 09:01N 44°51' E 020°39'0 0.0
2018-Jul-14 08:31N 44°51' E 020°39'0 0.0
2018-Jul-14 08:01N 44°51' E 020°39'0 0.0
2018-Jul-14 07:31N 44°51' E 020°39'0 0.8
2018-Jul-14 07:01N 44°51' E 020°39'0 0.0
2018-Jul-14 06:31N 44°51' E 020°39'0 0.0
2018-Jul-14 06:01N 44°51' E 020°39'0 0.0
2018-Jul-14 05:31N 44°51' E 020°39'0 0.0
2018-Jul-14 05:01N 44°51' E 020°39'0 0.3
2018-Jul-14 04:31N 44°51' E 020°39'0 1.0
2018-Jul-14 04:01N 44°50' E 020°38'0 0.0
2018-Jul-14 03:31N 44°50' E 020°38'0 0.0
2018-Jul-14 03:01N 44°50' E 020°38'0 0.0
2018-Jul-14 02:30N 44°50' E 020°38'0 0.0
2018-Jul-14 02:00N 44°50' E 020°38'0 0.0
2018-Jul-14 01:30N 44°50' E 020°38'0 0.0
2018-Jul-14 01:00N 44°50' E 020°38'0 0.0
2018-Jul-14 00:30N 44°50' E 020°38'0 0.0
2018-Jul-14 00:00N 44°50' E 020°38'0 0.0
2018-Jul-13 23:31N 44°50' E 020°38'0 0.0
2018-Jul-13 23:00N 44°50' E 020°38'0 0.0
2018-Jul-13 22:30N 44°50' E 020°38'0 0.0
2018-Jul-13 22:00N 44°50' E 020°38'0 0.0
2018-Jul-13 21:31N 44°50' E 020°38'0 0.0
2018-Jul-13 21:01N 44°50' E 020°38'0 0.0
2018-Jul-13 20:31N 44°50' E 020°38'0 0.0
2018-Jul-13 20:00N 44°50' E 020°38'0 0.0
2018-Jul-13 19:31N 44°50' E 020°38'0 0.4
2018-Jul-13 19:01N 44°50' E 020°38'2 3.9
2018-Jul-13 18:31N 44°48' E 020°38'2 4.4
2018-Jul-13 18:00N 44°46' E 020°38'2 4.1
2018-Jul-13 17:30N 44°44' E 020°40'2 4.3
2018-Jul-13 17:00N 44°43' E 020°42'2 4.4
2018-Jul-13 16:30N 44°41' E 020°43'2 4.2
2018-Jul-13 16:00N 44°40' E 020°46'2 4.1
2018-Jul-13 15:30N 44°39' E 020°49'2 4.0
2018-Jul-13 15:00N 44°40' E 020°51'4 3.8
2018-Jul-13 13:59N 44°41' E 020°57'1 0.8
2018-Jul-13 13:15N 44°41' E 020°56'1 0.7
2018-Jul-13 12:08N 44°40' E 020°55'0 1.5
2018-Jul-13 11:56N 44°40' E 020°56'0 0.3
2018-Jul-13 11:30N 44°40' E 020°56'0 0.1
2018-Jul-13 10:54N 44°40' E 020°56'0 0.0
2018-Jul-13 10:30N 44°40' E 020°56'1 0.3
2018-Jul-13 08:45N 44°41' E 020°56'1 1.7
2018-Jul-13 08:27N 44°41' E 020°57'0 0.0
2018-Jul-13 08:00N 44°41' E 020°57'0 0.0
2018-Jul-12 23:52N 44°41' E 020°57'0 0.0
2018-Jul-12 23:30N 44°41' E 020°57'0 0.0
2018-Jul-12 23:00N 44°41' E 020°57'0 0.0
2018-Jul-12 22:30N 44°41' E 020°57'0 0.0
2018-Jul-12 22:00N 44°41' E 020°57'0 0.0
2018-Jul-12 21:30N 44°41' E 020°57'0 0.0
2018-Jul-12 21:00N 44°41' E 020°57'0 0.0
2018-Jul-12 20:30N 44°41' E 020°57'0 0.0
2018-Jul-12 20:00N 44°41' E 020°57'0 0.0
2018-Jul-12 19:30N 44°41' E 020°57'0 0.0
2018-Jul-12 19:00N 44°41' E 020°57'0 0.0
2018-Jul-12 18:30N 44°41' E 020°57'0 0.0
2018-Jul-12 18:00N 44°41' E 020°57'0 0.0
2018-Jul-12 17:30N 44°41' E 020°57'0 0.0
2018-Jul-12 17:00N 44°41' E 020°57'0 0.0
2018-Jul-12 16:30N 44°41' E 020°57'0 0.0
2018-Jul-12 16:00N 44°41' E 020°57'0 0.0
2018-Jul-12 15:30N 44°41' E 020°57'0 0.0
2018-Jul-12 15:00N 44°41' E 020°57'0 0.0
2018-Jul-12 14:30N 44°41' E 020°57'0 0.0
2018-Jul-12 14:00N 44°41' E 020°57'0 0.0
2018-Jul-12 13:30N 44°41' E 020°57'0 0.0
2018-Jul-12 13:00N 44°41' E 020°57'0 0.0
2018-Jul-12 12:30N 44°41' E 020°57'0 0.0
2018-Jul-12 11:37N 44°41' E 020°57'0 0.0
2018-Jul-12 11:30N 44°41' E 020°57'0 0.0
2018-Jul-12 11:00N 44°41' E 020°57'0 0.0
2018-Jul-12 10:30N 44°41' E 020°57'0 0.0
2018-Jul-12 00:09N 44°41' E 020°57'0 0.0
2018-Jul-12 00:00N 44°41' E 020°57'0 0.0
2018-Jul-11 23:30N 44°41' E 020°57'0 0.0
2018-Jul-11 23:01N 44°41' E 020°57'0 0.0
2018-Jul-11 22:30N 44°41' E 020°57'0 0.0
2018-Jul-11 22:01N 44°41' E 020°57'0 0.0
2018-Jul-11 21:31N 44°41' E 020°57'0 0.0
2018-Jul-11 21:00N 44°41' E 020°57'0 0.0
2018-Jul-11 20:30N 44°41' E 020°57'0 0.0
2018-Jul-11 20:00N 44°41' E 020°57'0 0.0
2018-Jul-11 19:31N 44°41' E 020°57'0 0.0
2018-Jul-11 19:00N 44°41' E 020°57'0 0.0
2018-Jul-11 18:31N 44°41' E 020°57'0 0.0
2018-Jul-11 18:00N 44°41' E 020°57'0 0.0
2018-Jul-11 17:31N 44°41' E 020°57'0 0.0
2018-Jul-11 17:01N 44°41' E 020°57'0 0.0
2018-Jul-11 16:30N 44°41' E 020°57'0 0.0
2018-Jul-11 16:00N 44°41' E 020°57'0 0.0
2018-Jul-11 15:31N 44°41' E 020°57'0 0.0
2018-Jul-11 15:01N 44°41' E 020°57'0 0.0
2018-Jul-11 14:30N 44°41' E 020°57'0 0.0
2018-Jul-11 14:00N 44°41' E 020°57'0 0.0
2018-Jul-11 13:30N 44°41' E 020°57'0 0.0
2018-Jul-11 13:00N 44°41' E 020°57'0 0.0
2018-Jul-11 12:30N 44°41' E 020°57'0 0.0
2018-Jul-11 12:00N 44°41' E 020°57'0 0.0
2018-Jul-11 11:30N 44°41' E 020°57'0 0.0
2018-Jul-11 11:00N 44°41' E 020°57'0 0.0
2018-Jul-11 10:31N 44°41' E 020°57'0 0.0
2018-Jul-11 10:00N 44°41' E 020°57'0 0.0
2018-Jul-10 20:18N 44°41' E 020°57'0 0.0
2018-Jul-10 20:00N 44°41' E 020°57'0 0.0
2018-Jul-10 19:30N 44°41' E 020°57'0 0.0
2018-Jul-10 19:00N 44°41' E 020°57'0 0.0
2018-Jul-10 18:30N 44°41' E 020°57'0 0.0
2018-Jul-10 18:00N 44°41' E 020°57'0 0.0
2018-Jul-10 17:30N 44°41' E 020°57'0 0.0
2018-Jul-10 17:01N 44°41' E 020°57'0 0.0
2018-Jul-10 16:30N 44°41' E 020°57'0 0.0
2018-Jul-10 16:00N 44°41' E 020°57'0 0.0
2018-Jul-10 15:31N 44°41' E 020°57'0 0.0
2018-Jul-10 15:00N 44°41' E 020°57'0 0.0
2018-Jul-10 14:30N 44°41' E 020°57'0 0.0
2018-Jul-10 14:01N 44°41' E 020°57'0 0.0
2018-Jul-10 13:31N 44°41' E 020°57'0 0.3
2018-Jul-10 13:00N 44°41' E 020°57'0 0.0
2018-Jul-10 12:30N 44°41' E 020°57'0 0.0
2018-Jul-10 12:00N 44°41' E 020°57'0 0.0
2018-Jul-10 11:30N 44°41' E 020°57'0 0.0
2018-Jul-10 11:00N 44°41' E 020°57'0 0.0
2018-Jul-09 21:52N 44°41' E 020°57'0 0.0
2018-Jul-09 21:30N 44°41' E 020°57'0 0.0
2018-Jul-09 21:00N 44°41' E 020°57'0 0.0
2018-Jul-09 20:30N 44°41' E 020°57'0 0.0
2018-Jul-09 20:00N 44°41' E 020°57'0 0.0
2018-Jul-09 19:30N 44°41' E 020°57'0 0.0
2018-Jul-09 19:00N 44°41' E 020°57'0 0.0
2018-Jul-09 18:30N 44°41' E 020°57'0 0.0
2018-Jul-09 18:00N 44°41' E 020°57'0 0.0
2018-Jul-09 17:30N 44°41' E 020°57'0 0.0
2018-Jul-09 17:00N 44°41' E 020°57'0 0.0
2018-Jul-09 16:30N 44°41' E 020°57'0 0.0
2018-Jul-09 16:00N 44°41' E 020°57'0 0.0
2018-Jul-09 15:30N 44°41' E 020°57'0 0.0
2018-Jul-09 15:00N 44°41' E 020°57'0 0.0
2018-Jul-09 14:30N 44°41' E 020°57'0 0.0
2018-Jul-09 14:00N 44°41' E 020°57'0 0.0
2018-Jul-09 13:30N 44°41' E 020°57'0 0.0
2018-Jul-09 13:00N 44°41' E 020°57'0 0.0
2018-Jul-09 12:30N 44°41' E 020°57'0 0.0
2018-Jul-09 12:00N 44°41' E 020°57'0 0.0
2018-Jul-09 11:30N 44°41' E 020°57'0 0.0
2018-Jul-09 11:00N 44°41' E 020°57'0 0.0
2018-Jul-09 10:30N 44°41' E 020°57'  

Dump ship's entire track history